Time;durP1;ratioP1;P1;durP2;ratioP2;P2;SDS_P1;SDS_P2;PMS_P1;PMS_P2;Temp;Humidity;BMP_temperature;BMP_pressure;BME280_temperature;BME280_humidity;BME280_pressure;Samples;Min_cycle;Max_cycle;Signal;HPM_P1;HPM_P2
2023/01/01 00:00:00;;;;;;;12.33;5.60;;;16.10;99.90;;;;;;5048773;28;20864;-64
2023/01/01 00:02:27;;;;;;;9.83;5.60;;;16.10;99.90;;;;;;5047221;28;20207;-63
2023/01/01 00:05:02;;;;;;;11.77;5.37;;;16.10;99.90;;;;;;5047821;28;20805;-63
2023/01/01 00:07:29;;;;;;;13.77;5.57;;;16.20;99.90;;;;;;5051918;28;20203;-63
2023/01/01 00:12:41;;;;;;;6.27;4.07;;;16.10;99.90;;;;;;5033322;28;20297;-64
2023/01/01 00:15:08;;;;;;;6.83;4.50;;;16.10;99.90;;;;;;5033132;28;20227;-63
2023/01/01 00:17:35;;;;;;;10.03;4.10;;;16.10;99.90;;;;;;5049674;28;20208;-63
2023/01/01 00:20:02;;;;;;;7.57;3.37;;;16.10;99.90;;;;;;5036359;28;20677;-63
2023/01/01 00:22:29;;;;;;;5.20;3.13;;;16.10;99.90;;;;;;5048373;28;20205;-63
2023/01/01 00:25:17;;;;;;;7.23;3.10;;;16.10;99.90;;;;;;5047448;28;20309;-63
2023/01/01 00:27:44;;;;;;;7.87;3.83;;;16.00;99.90;;;;;;5017336;28;20237;-62
2023/01/01 00:30:11;;;;;;;5.20;2.90;;;15.90;99.90;;;;;;5046077;28;20638;-63
2023/01/01 00:32:38;;;;;;;6.93;3.50;;;15.90;99.90;;;;;;5026974;28;21852;-63
2023/01/01 00:35:05;;;;;;;13.80;4.97;;;15.90;99.90;;;;;;5025403;28;20647;-63
2023/01/01 00:37:32;;;;;;;6.33;3.30;;;15.90;99.90;;;;;;5031397;28;20236;-64
2023/01/01 00:40:01;;;;;;;8.93;2.60;;;15.80;99.90;;;;;;5046310;28;20235;-63
2023/01/01 00:42:27;;;;;;;7.97;2.60;;;15.80;99.90;;;;;;5046976;28;20192;-64
2023/01/01 00:44:54;;;;;;;6.47;3.80;;;15.80;99.90;;;;;;5053292;28;20328;-63
2023/01/01 00:47:21;;;;;;;4.37;2.20;;;15.80;99.90;;;;;;5048780;28;20199;-63
2023/01/01 00:49:48;;;;;;;8.53;3.20;;;15.80;99.90;;;;;;5047672;28;20281;-63
2023/01/01 00:52:14;;;;;;;6.70;3.10;;;15.80;99.90;;;;;;5032711;28;20222;-62
2023/01/01 00:54:41;;;;;;;5.80;2.30;;;15.70;99.90;;;;;;5048914;28;20399;-63
2023/01/01 00:57:08;;;;;;;4.23;2.50;;;15.60;99.90;;;;;;5046916;28;20300;-63
2023/01/01 00:59:35;;;;;;;9.67;3.13;;;15.60;99.90;;;;;;5026890;28;20281;-63
2023/01/01 01:02:02;;;;;;;5.87;2.17;;;15.50;99.90;;;;;;5048730;28;20206;-64
2023/01/01 01:04:29;;;;;;;5.07;3.27;;;15.40;99.90;;;;;;5051206;28;20205;-63
2023/01/01 01:06:56;;;;;;;4.70;1.97;;;15.40;99.90;;;;;;5047810;28;20688;-63
2023/01/01 01:09:23;;;;;;;3.83;2.00;;;15.50;99.90;;;;;;5026698;28;20209;-63
2023/01/01 01:11:50;;;;;;;6.73;3.27;;;15.50;99.90;;;;;;5028887;28;20225;-63
2023/01/01 01:14:37;;;;;;;4.83;2.00;;;15.40;99.90;;;;;;5034719;28;20257;-63
2023/01/01 01:17:03;;;;;;;5.33;2.73;;;15.40;99.90;;;;;;5048095;28;20929;-64
2023/01/01 01:19:30;;;;;;;7.63;2.37;;;15.50;99.90;;;;;;5050240;28;20637;-63
2023/01/01 01:21:57;;;;;;;6.43;2.17;;;15.50;99.90;;;;;;5014631;28;20217;-64
2023/01/01 01:24:24;;;;;;;4.43;1.90;;;15.50;99.90;;;;;;5050247;28;20210;-64
2023/01/01 01:26:52;;;;;;;6.30;2.57;;;15.50;99.90;;;;;;5048973;28;20265;-63
2023/01/01 01:29:19;;;;;;;8.13;1.60;;;15.40;99.90;;;;;;5031386;28;20342;-64
2023/01/01 01:31:45;;;;;;;6.40;2.13;;;15.50;99.90;;;;;;5065921;28;20763;-64
2023/01/01 01:34:14;;;;;;;3.50;1.73;;;15.50;99.90;;;;;;5068220;28;21240;-64
2023/01/01 01:36:42;;;;;;;5.03;1.70;;;15.50;99.90;;;;;;5071863;28;20210;-63
2023/01/01 01:39:11;;;;;;;5.13;2.57;;;15.50;99.90;;;;;;5059368;28;20221;-64
2023/01/01 01:41:38;;;;;;;6.93;1.50;;;15.40;99.90;;;;;;5033617;28;21226;-63
2023/01/01 01:44:42;;;;;;;3.83;2.00;;;15.50;99.90;;;;;;5066889;28;20199;-63
2023/01/01 01:47:20;;;;;;;5.00;2.00;;;15.50;99.90;;;;;;5072651;28;20293;-64
2023/01/01 01:49:49;;;;;;;5.30;1.80;;;15.50;99.90;;;;;;5068397;28;20205;-63
2023/01/01 01:52:15;;;;;;;3.87;1.87;;;15.40;99.90;;;;;;5071837;28;20846;-64
2023/01/01 01:54:42;;;;;;;4.83;1.77;;;15.40;99.90;;;;;;5073679;28;20308;-63
2023/01/01 01:57:11;;;;;;;3.10;1.53;;;15.40;99.90;;;;;;5075914;28;20614;-63
2023/01/01 01:59:43;;;;;;;5.80;2.20;;;15.40;99.90;;;;;;5069812;28;20728;-64
2023/01/01 02:02:45;;;;;;;7.27;1.70;;;15.40;99.90;;;;;;5056288;28;21129;-64
2023/01/01 02:05:12;;;;;;;7.90;2.17;;;15.40;99.90;;;;;;5070144;28;20207;-63
2023/01/01 02:07:40;;;;;;;6.13;2.03;;;15.40;99.90;;;;;;5071294;28;20654;-61
2023/01/01 02:10:07;;;;;;;4.47;1.50;;;15.50;99.90;;;;;;5074778;28;20715;-63
2023/01/01 02:12:34;;;;;;;3.87;1.50;;;15.40;99.90;;;;;;5074285;28;20212;-63
2023/01/01 02:15:01;;;;;;;7.43;1.50;;;15.40;99.90;;;;;;5076136;28;20232;-63
2023/01/01 02:17:39;;;;;;;6.90;1.90;;;15.40;99.90;;;;;;5057315;28;20279;-63
2023/01/01 02:20:25;;;;;;;3.90;1.50;;;15.40;99.90;;;;;;5074210;28;20251;-62
2023/01/01 02:23:14;;;;;;;5.23;1.60;;;15.30;99.90;;;;;;5077985;28;20648;-64
2023/01/01 02:25:59;;;;;;;5.97;1.30;;;15.40;99.90;;;;;;5059680;28;20244;-64
2023/01/01 02:28:47;;;;;;;2.60;1.30;;;15.40;99.90;;;;;;5075035;28;20245;-62
2023/01/01 02:31:20;;;;;;;3.70;1.27;;;15.40;99.90;;;;;;5078494;28;20296;-62
2023/01/01 02:33:52;;;;;;;4.90;1.57;;;15.40;99.90;;;;;;5077684;28;20200;-62
2023/01/01 02:36:21;;;;;;;4.87;1.63;;;15.40;99.90;;;;;;5060622;28;20217;-62
2023/01/01 02:38:52;;;;;;;4.30;1.20;;;15.30;99.90;;;;;;5078752;28;20237;-68
2023/01/01 02:41:29;;;;;;;7.97;1.67;;;15.40;99.90;;;;;;5076973;28;20639;-62
2023/01/01 02:43:57;;;;;;;6.00;1.60;;;15.40;99.90;;;;;;5076858;28;20206;-64
2023/01/01 02:46:22;;;;;;;2.93;1.33;;;15.30;99.90;;;;;;5077931;28;20247;-64
2023/01/01 02:48:50;;;;;;;6.50;1.60;;;15.40;99.90;;;;;;5076765;28;20183;-62
2023/01/01 02:51:36;;;;;;;4.90;1.77;;;15.40;99.90;;;;;;5074517;28;20211;-65
2023/01/01 02:54:24;;;;;;;6.90;1.47;;;15.40;99.90;;;;;;5078385;28;20571;-62
2023/01/01 02:57:00;;;;;;;4.63;1.60;;;15.40;99.90;;;;;;5065368;28;20252;-62
2023/01/01 03:02:51;;;;;;;4.77;1.40;;;15.40;99.90;;;;;;5080784;28;20234;-62
2023/01/01 03:08:41;;;;;;;5.87;2.60;;;15.30;99.90;;;;;;5083401;28;20213;-62
2023/01/01 03:11:12;;;;;;;3.77;1.20;;;15.40;99.90;;;;;;5080827;28;20220;-62
2023/01/01 03:14:09;;;;;;;3.20;1.03;;;15.40;99.90;;;;;;5082908;28;20712;-62
2023/01/01 03:16:39;;;;;;;3.43;1.13;;;15.30;99.90;;;;;;5064992;28;20254;-62
2023/01/01 03:19:29;;;;;;;5.23;1.43;;;15.20;99.90;;;;;;5081489;28;20205;-62
2023/01/01 03:22:16;;;;;;;5.97;1.50;;;15.30;99.90;;;;;;5082508;28;20205;-62
2023/01/01 03:25:15;;;;;;;3.90;1.50;;;15.30;99.90;;;;;;5082091;28;20201;-62
2023/01/01 03:27:56;;;;;;;3.67;1.40;;;15.30;99.90;;;;;;5038018;28;20513;-62
2023/01/01 03:30:23;;;;;;;9.43;1.40;;;15.30;99.90;;;;;;5080487;28;20194;-62
2023/01/01 03:33:06;;;;;;;5.30;1.50;;;15.20;99.90;;;;;;5061806;28;20581;-65
2023/01/01 03:35:46;;;;;;;3.27;1.07;;;15.20;99.90;;;;;;5063653;28;20275;-62
2023/01/01 03:38:30;;;;;;;2.57;1.27;;;15.20;99.90;;;;;;5080880;28;20735;-63
2023/01/01 03:41:22;;;;;;;3.17;1.20;;;15.10;99.90;;;;;;5082148;28;20708;-62
2023/01/01 03:44:31;;;;;;;4.40;1.57;;;15.10;99.90;;;;;;5081378;28;20207;-63
2023/01/01 03:46:58;;;;;;;6.70;1.50;;;15.10;99.90;;;;;;5067702;28;20688;-62
2023/01/01 03:49:26;;;;;;;3.90;1.77;;;15.10;99.90;;;;;;5081502;28;20230;-63
2023/01/01 03:52:08;;;;;;;3.50;1.33;;;15.10;99.90;;;;;;5080682;28;20207;-63
2023/01/01 03:54:59;;;;;;;3.13;1.07;;;15.10;99.90;;;;;;5079820;28;20211;-62
2023/01/01 03:57:52;;;;;;;5.40;1.03;;;15.00;99.90;;;;;;5074707;28;20198;-64
2023/01/01 04:00:21;;;;;;;5.77;1.50;;;15.00;99.90;;;;;;5081460;28;20201;-62
2023/01/01 04:02:56;;;;;;;2.77;1.10;;;15.00;99.90;;;;;;5074586;28;20653;-63
2023/01/01 04:05:24;;;;;;;5.53;1.27;;;15.00;99.90;;;;;;5077035;28;20233;-62
2023/01/01 04:07:52;;;;;;;5.60;1.37;;;15.00;99.90;;;;;;5076469;28;20202;-63
2023/01/01 04:10:20;;;;;;;4.10;1.30;;;15.00;99.90;;;;;;5081309;28;20230;-63
2023/01/01 04:12:52;;;;;;;8.07;1.67;;;15.00;99.90;;;;;;5063165;28;20199;-63
2023/01/01 04:15:23;;;;;;;3.50;1.00;;;15.00;99.90;;;;;;5077389;28;20297;-62
2023/01/01 04:17:50;;;;;;;3.57;1.40;;;15.00;99.90;;;;;;5071715;28;21644;-63
2023/01/01 04:20:17;;;;;;;3.63;1.53;;;15.00;99.90;;;;;;5080538;28;20627;-62
2023/01/01 04:22:45;;;;;;;6.30;1.40;;;14.90;99.90;;;;;;5080865;28;20304;-62
2023/01/01 04:25:12;;;;;;;1.83;1.20;;;14.90;99.90;;;;;;5077024;28;20188;-62
2023/01/01 04:27:40;;;;;;;4.30;1.13;;;14.90;99.90;;;;;;5068271;28;20322;-62
2023/01/01 04:30:09;;;;;;;5.03;1.70;;;14.90;99.90;;;;;;5079790;28;20295;-62
2023/01/01 04:32:37;;;;;;;4.73;1.43;;;14.90;99.90;;;;;;5074950;28;20204;-62
2023/01/01 04:35:05;;;;;;;4.07;1.33;;;14.90;99.90;;;;;;5078378;28;20998;-62
2023/01/01 04:37:34;;;;;;;3.37;1.20;;;14.90;99.90;;;;;;5076822;28;20198;-63
2023/01/01 04:40:01;;;;;;;4.77;1.50;;;14.90;99.90;;;;;;5077679;28;20195;-62
2023/01/01 04:42:28;;;;;;;2.53;1.40;;;14.90;99.90;;;;;;5058926;28;20234;-62
2023/01/01 04:44:55;;;;;;;4.70;1.57;;;14.90;99.90;;;;;;5058948;28;20213;-62
2023/01/01 04:47:22;;;;;;;4.07;1.80;;;14.90;99.90;;;;;;5076253;28;20653;-62
2023/01/01 04:49:48;;;;;;;5.00;1.70;;;14.90;99.90;;;;;;5076706;28;20216;-62
2023/01/01 04:52:15;;;;;;;4.57;1.70;;;14.90;99.90;;;;;;5076412;28;20224;-62
2023/01/01 04:54:42;;;;;;;5.13;1.80;;;14.90;99.90;;;;;;5076962;28;20217;-63
2023/01/01 04:57:08;;;;;;;4.67;2.00;;;14.90;99.90;;;;;;5075723;28;20315;-63
2023/01/01 04:59:35;;;;;;;2.97;1.30;;;14.90;99.90;;;;;;5075482;28;20200;-62
2023/01/01 05:02:02;;;;;;;2.20;1.10;;;14.80;99.90;;;;;;5075455;28;20196;-61
2023/01/01 05:04:29;;;;;;;5.03;1.50;;;14.80;99.90;;;;;;5060621;28;20196;-62
2023/01/01 05:06:56;;;;;;;4.67;1.60;;;14.80;99.90;;;;;;5074192;28;20298;-63
2023/01/01 05:09:23;;;;;;;4.70;1.63;;;14.80;99.90;;;;;;5074691;28;20241;-62
2023/01/01 05:11:50;;;;;;;7.07;2.00;;;14.70;99.90;;;;;;5057681;28;20584;-62
2023/01/01 05:14:16;;;;;;;4.07;1.30;;;14.80;99.90;;;;;;5076252;28;20282;-62
2023/01/01 05:16:43;;;;;;;4.67;1.50;;;14.70;99.90;;;;;;5072739;28;20217;-63
2023/01/01 05:19:10;;;;;;;5.43;1.50;;;14.60;99.90;;;;;;5075584;28;20209;-62
2023/01/01 05:21:44;;;;;;;4.70;1.70;;;14.50;99.90;;;;;;5075542;28;20229;-62
2023/01/01 05:24:12;;;;;;;8.43;1.40;;;14.40;99.90;;;;;;5076240;28;20201;-63
2023/01/01 05:26:41;;;;;;;3.73;1.40;;;14.40;99.90;;;;;;5075454;28;20237;-62
2023/01/01 05:29:08;;;;;;;5.57;1.30;;;14.40;99.90;;;;;;5077449;28;20207;-62
2023/01/01 05:31:43;;;;;;;4.53;1.80;;;14.30;99.90;;;;;;5062922;28;20532;-63
2023/01/01 05:34:10;;;;;;;6.53;1.93;;;14.30;99.90;;;;;;5058306;28;20201;-63
2023/01/01 05:36:37;;;;;;;8.20;1.87;;;14.30;99.90;;;;;;5075611;28;20304;-66
2023/01/01 05:39:10;;;;;;;3.77;1.43;;;14.20;99.90;;;;;;5062653;28;20214;-64
2023/01/01 05:41:38;;;;;;;5.07;1.43;;;14.20;99.90;;;;;;5074410;28;20212;-66
2023/01/01 05:44:07;;;;;;;7.50;1.57;;;14.20;99.90;;;;;;5077831;28;20219;-62
2023/01/01 05:46:35;;;;;;;5.57;1.37;;;14.10;99.90;;;;;;5080200;28;20275;-62
2023/01/01 05:49:02;;;;;;;6.60;1.67;;;14.00;99.90;;;;;;5080444;28;20195;-61
2023/01/01 05:51:29;;;;;;;4.83;1.60;;;14.00;99.90;;;;;;5079336;28;20202;-62
2023/01/01 05:53:57;;;;;;;8.47;1.50;;;14.00;99.90;;;;;;5080127;28;20210;-62
2023/01/01 05:56:24;;;;;;;6.10;1.63;;;14.00;99.90;;;;;;5065192;28;20215;-62
2023/01/01 05:58:51;;;;;;;3.60;1.40;;;13.90;99.90;;;;;;5077003;28;20677;-62
2023/01/01 06:01:24;;;;;;;6.73;1.60;;;13.90;99.90;;;;;;5079139;28;20291;-62
2023/01/01 06:03:52;;;;;;;5.43;1.53;;;13.90;99.90;;;;;;5073382;28;20231;-62
2023/01/01 06:06:27;;;;;;;2.10;0.93;;;14.00;99.90;;;;;;5079183;28;20205;-62
2023/01/01 06:09:03;;;;;;;1.37;0.70;;;13.90;99.90;;;;;;5077441;28;20680;-66
2023/01/01 06:11:31;;;;;;;2.53;0.60;;;13.80;99.90;;;;;;5078837;28;20266;-62
2023/01/01 06:13:59;;;;;;;5.30;0.70;;;13.60;99.90;;;;;;5078508;28;20211;-62
2023/01/01 06:16:28;;;;;;;4.47;0.90;;;13.40;99.90;;;;;;5078220;28;20302;-63
2023/01/01 06:18:55;;;;;;;1.07;0.60;;;13.30;99.90;;;;;;5078320;28;20581;-61
2023/01/01 06:21:25;;;;;;;1.63;0.60;;;13.20;99.90;;;;;;5080074;28;20212;-62
2023/01/01 06:23:54;;;;;;;0.53;0.43;;;13.10;99.90;;;;;;5080560;28;20316;-62
2023/01/01 06:26:26;;;;;;;4.43;0.60;;;12.90;99.90;;;;;;5079116;28;20210;-64
2023/01/01 06:28:54;;;;;;;4.03;0.90;;;12.80;99.90;;;;;;5074395;28;20232;-62
2023/01/01 06:31:22;;;;;;;3.13;0.60;;;12.70;99.90;;;;;;5079611;28;20204;-62
2023/01/01 06:33:49;;;;;;;1.57;0.50;;;12.70;99.90;;;;;;5067191;28;20257;-62
2023/01/01 06:36:19;;;;;;;4.93;0.63;;;12.70;99.90;;;;;;5062961;28;20215;-62
2023/01/01 06:38:48;;;;;;;2.43;0.63;;;12.70;99.90;;;;;;5060371;28;20290;-62
2023/01/01 06:41:21;;;;;;;2.80;0.47;;;12.70;99.90;;;;;;5078597;28;20642;-62
2023/01/01 06:43:48;;;;;;;1.10;0.63;;;12.60;99.90;;;;;;5059667;28;20201;-64
2023/01/01 06:46:20;;;;;;;1.13;0.50;;;12.60;99.90;;;;;;5078695;28;20288;-62
2023/01/01 06:48:50;;;;;;;3.33;0.70;;;12.70;99.90;;;;;;5078380;28;20232;-62
2023/01/01 06:51:22;;;;;;;3.20;0.73;;;12.60;99.90;;;;;;5080044;28;20199;-62
2023/01/01 06:53:50;;;;;;;3.83;0.50;;;12.70;99.90;;;;;;5079031;28;20317;-62
2023/01/01 06:56:17;;;;;;;5.13;0.90;;;12.70;99.90;;;;;;5078829;28;20310;-62
2023/01/01 06:58:44;;;;;;;5.63;0.80;;;12.70;99.90;;;;;;5074325;28;20276;-62
2023/01/01 07:01:11;;;;;;;1.67;0.60;;;12.70;99.90;;;;;;5059218;28;20208;-63
2023/01/01 07:03:39;;;;;;;1.93;0.60;;;12.60;99.90;;;;;;5080883;28;20193;-62
2023/01/01 07:06:07;;;;;;;3.33;0.70;;;12.60;99.90;;;;;;5078115;28;20210;-62
2023/01/01 07:08:34;;;;;;;2.13;0.53;;;12.60;99.90;;;;;;5077163;28;20213;-62
2023/01/01 07:11:01;;;;;;;2.37;1.10;;;12.60;99.90;;;;;;5059649;28;20254;-62
2023/01/01 07:13:29;;;;;;;4.50;0.67;;;12.60;99.90;;;;;;5079514;28;20296;-62
2023/01/01 07:15:56;;;;;;;2.50;0.63;;;12.50;99.90;;;;;;5078480;28;20203;-62
2023/01/01 07:18:24;;;;;;;2.47;0.73;;;12.60;99.90;;;;;;5078450;28;20200;-62
2023/01/01 07:20:54;;;;;;;6.17;0.87;;;12.60;99.90;;;;;;5078896;28;20655;-62
2023/01/01 07:23:21;;;;;;;2.77;0.80;;;12.40;99.90;;;;;;5079703;28;20292;-62
2023/01/01 07:25:49;;;;;;;3.93;0.83;;;12.30;99.90;;;;;;5077837;28;20820;-64
2023/01/01 07:28:16;;;;;;;2.93;0.63;;;12.30;99.90;;;;;;5077342;28;20255;-65
2023/01/01 07:30:43;;;;;;;3.47;0.80;;;12.20;99.90;;;;;;5077905;28;20303;-63
2023/01/01 07:33:15;;;;;;;2.47;0.63;;;12.20;99.90;;;;;;5060118;28;20412;-63
2023/01/01 07:35:45;;;;;;;4.73;0.80;;;12.10;99.90;;;;;;5058750;28;20666;-62
2023/01/01 07:38:13;;;;;;;1.77;0.63;;;12.10;99.90;;;;;;5077858;28;20221;-63
2023/01/01 07:40:41;;;;;;;2.60;0.60;;;12.20;99.90;;;;;;5072125;28;20244;-63
2023/01/01 07:43:08;;;;;;;1.57;0.50;;;12.10;99.90;;;;;;5081336;28;20209;-63
2023/01/01 07:45:35;;;;;;;4.03;0.70;;;12.10;99.90;;;;;;5064113;28;20293;-61
2023/01/01 07:48:02;;;;;;;2.40;0.50;;;12.10;99.90;;;;;;5082917;28;20640;-62
2023/01/01 07:50:31;;;;;;;2.43;0.70;;;12.10;99.90;;;;;;5082461;28;20209;-61
2023/01/01 07:52:58;;;;;;;1.77;0.50;;;12.10;99.90;;;;;;5079700;28;20212;-62
2023/01/01 07:55:25;;;;;;;2.97;0.77;;;12.10;99.90;;;;;;5078320;28;20212;-62
2023/01/01 07:57:52;;;;;;;4.40;0.70;;;12.00;99.90;;;;;;5080531;28;20229;-63
2023/01/01 08:00:20;;;;;;;4.80;1.00;;;12.00;99.90;;;;;;5079105;28;20231;-62
2023/01/01 08:02:47;;;;;;;4.33;0.90;;;11.90;99.90;;;;;;5082012;28;20625;-62
2023/01/01 08:05:14;;;;;;;3.40;1.07;;;11.90;99.90;;;;;;5082037;28;20263;-62
2023/01/01 08:07:49;;;;;;;1.87;0.80;;;11.90;99.90;;;;;;5078783;28;20205;-62
2023/01/01 08:10:19;;;;;;;2.20;0.70;;;11.90;99.90;;;;;;5062725;28;20338;-62
2023/01/01 08:12:46;;;;;;;7.07;0.87;;;11.90;99.90;;;;;;5082064;28;20237;-62
2023/01/01 08:15:14;;;;;;;5.87;1.10;;;11.80;99.90;;;;;;5081299;28;20263;-62
2023/01/01 08:17:41;;;;;;;2.30;0.83;;;11.80;99.90;;;;;;5062932;28;20214;-61
2023/01/01 08:20:13;;;;;;;5.90;0.80;;;11.80;99.90;;;;;;5064665;28;20198;-62
2023/01/01 08:22:39;;;;;;;3.80;0.97;;;11.80;99.90;;;;;;5082159;28;20656;-61
2023/01/01 08:25:07;;;;;;;3.07;1.00;;;11.80;99.90;;;;;;5081883;28;20205;-62
2023/01/01 08:27:34;;;;;;;6.87;0.80;;;11.80;99.90;;;;;;5079682;28;20238;-62
2023/01/01 08:30:01;;;;;;;5.07;1.07;;;11.70;99.90;;;;;;5062676;28;20736;-62
2023/01/01 08:32:28;;;;;;;8.90;1.20;;;11.70;99.90;;;;;;5080521;28;20669;-62
2023/01/01 08:34:54;;;;;;;1.77;0.80;;;11.60;99.90;;;;;;5081272;28;20673;-62
2023/01/01 08:37:22;;;;;;;2.80;1.10;;;11.60;99.90;;;;;;5081400;28;20218;-64
2023/01/01 08:39:52;;;;;;;2.63;0.80;;;11.60;99.90;;;;;;5079909;28;20646;-62
2023/01/01 08:42:19;;;;;;;4.33;0.67;;;11.60;99.90;;;;;;5080427;28;20688;-61
2023/01/01 08:44:45;;;;;;;3.77;0.53;;;11.60;99.90;;;;;;5080138;28;20206;-62
2023/01/01 08:47:21;;;;;;;2.80;0.90;;;11.60;99.90;;;;;;5080626;28;20214;-62
2023/01/01 08:49:48;;;;;;;3.20;0.73;;;11.60;99.90;;;;;;5080131;28;20625;-62
2023/01/01 08:52:15;;;;;;;6.93;0.97;;;11.60;99.90;;;;;;5081134;28;20632;-61
2023/01/01 08:54:42;;;;;;;5.20;1.13;;;11.60;99.90;;;;;;5079816;28;20211;-62
2023/01/01 08:57:09;;;;;;;7.43;1.30;;;11.70;99.90;;;;;;5080698;28;20218;-62
2023/01/01 08:59:36;;;;;;;2.50;1.10;;;11.70;99.90;;;;;;5077103;28;20198;-62
2023/01/01 09:02:03;;;;;;;4.60;0.77;;;11.70;99.90;;;;;;5078925;28;20199;-62
2023/01/01 09:04:30;;;;;;;7.70;1.30;;;11.60;99.90;;;;;;5077600;28;20206;-62
2023/01/01 09:06:57;;;;;;;6.23;1.13;;;11.70;99.90;;;;;;5049869;28;20195;-62
2023/01/01 09:09:24;;;;;;;6.03;1.13;;;11.70;99.90;;;;;;5076630;28;20210;-65
2023/01/01 09:12:02;;;;;;;4.90;2.47;;;11.70;99.90;;;;;;5080037;28;20318;-61
2023/01/01 09:14:30;;;;;;;5.13;1.23;;;11.70;99.90;;;;;;5079114;28;20655;-61
2023/01/01 09:16:57;;;;;;;8.10;2.67;;;11.80;99.90;;;;;;5060554;28;20665;-61
2023/01/01 09:19:23;;;;;;;4.37;1.07;;;11.80;99.90;;;;;;5077838;28;20202;-62
2023/01/01 09:21:51;;;;;;;4.87;1.27;;;11.80;99.90;;;;;;5080133;28;20256;-65
2023/01/01 09:24:18;;;;;;;9.60;1.20;;;11.80;99.90;;;;;;5078844;28;20560;-62
2023/01/01 09:26:45;;;;;;;5.50;1.30;;;11.70;99.90;;;;;;5080567;28;20203;-62
2023/01/01 09:29:12;;;;;;;4.40;1.20;;;11.70;99.90;;;;;;5078155;28;20238;-62
2023/01/01 09:31:40;;;;;;;6.17;1.60;;;11.60;99.90;;;;;;5079106;28;20212;-62
2023/01/01 09:34:07;;;;;;;7.00;1.47;;;11.60;99.90;;;;;;5079512;28;20203;-62
2023/01/01 09:36:34;;;;;;;7.10;1.47;;;11.50;99.90;;;;;;5079935;28;20700;-62
2023/01/01 09:39:01;;;;;;;5.30;1.97;;;11.50;99.90;;;;;;5078257;28;20257;-62
2023/01/01 09:41:32;;;;;;;4.83;1.50;;;11.40;99.90;;;;;;5079873;28;20290;-61
2023/01/01 09:44:10;;;;;;;6.47;1.20;;;11.40;99.90;;;;;;5077641;28;20203;-62
2023/01/01 09:46:37;;;;;;;5.73;1.43;;;11.40;99.90;;;;;;5079290;28;20195;-61
2023/01/01 09:49:14;;;;;;;4.27;1.60;;;11.40;99.90;;;;;;5079323;28;20232;-64
2023/01/01 09:51:42;;;;;;;9.67;1.40;;;11.40;99.90;;;;;;5074879;28;20648;-62
2023/01/01 09:54:32;;;;;;;4.27;1.07;;;11.40;99.90;;;;;;5068704;28;20206;-61
2023/01/01 09:57:02;;;;;;;6.40;1.47;;;11.30;99.90;;;;;;5061387;28;20214;-62
2023/01/01 09:59:29;;;;;;;10.53;1.47;;;11.30;99.90;;;;;;5075183;28;20203;-62
2023/01/01 10:02:37;;;;;;;7.03;1.60;;;11.30;99.90;;;;;;5073780;28;20200;-62
2023/01/01 10:05:29;;;;;;;5.13;1.70;;;11.40;99.90;;;;;;4971854;28;21128;-64
2023/01/01 10:08:12;;;;;;;10.63;1.60;;;11.30;99.90;;;;;;5057056;28;20401;-62
2023/01/01 10:11:16;;;;;;;9.07;1.50;;;11.40;99.90;;;;;;5067817;28;20237;-62
2023/01/01 10:13:44;;;;;;;5.07;1.53;;;11.40;99.90;;;;;;4723495;28;10000581;-62
2023/01/01 10:16:17;;;;;;;4.40;1.30;;;11.40;99.90;;;;;;5061513;28;20305;-62
2023/01/01 10:18:54;;;;;;;6.50;1.97;;;11.40;99.90;;;;;;5056139;28;20230;-62
2023/01/01 10:21:26;;;;;;;5.93;2.07;;;11.50;99.90;;;;;;5066363;28;20765;-63
2023/01/01 10:24:01;;;;;;;7.70;2.50;;;11.60;99.90;;;;;;5070104;28;21034;-63
2023/01/01 10:26:28;;;;;;;9.30;2.80;;;11.50;99.90;;;;;;5060616;28;20286;-64
2023/01/01 10:29:29;;;;;;;6.77;3.00;;;11.70;99.90;;;;;;5072101;28;20270;-62
2023/01/01 10:31:57;;;;;;;5.00;1.87;;;11.80;99.90;;;;;;5038411;28;20207;-62
2023/01/01 10:34:27;;;;;;;6.37;2.40;;;11.80;99.90;;;;;;5069106;28;20238;-62
2023/01/01 10:36:57;;;;;;;8.73;2.90;;;11.60;99.90;;;;;;5072635;28;20249;-63
2023/01/01 10:39:24;;;;;;;6.17;2.63;;;11.70;99.90;;;;;;5074009;28;20632;-62
2023/01/01 10:41:51;;;;;;;5.83;2.60;;;11.70;99.90;;;;;;5076761;28;20710;-62
2023/01/01 10:44:30;;;;;;;6.10;2.80;;;11.70;99.90;;;;;;5076293;28;20554;-62
2023/01/01 10:46:59;;;;;;;6.03;2.70;;;11.80;99.90;;;;;;5077647;28;20846;-62
2023/01/01 10:49:25;;;;;;;7.40;3.50;;;11.90;99.90;;;;;;5070795;28;20323;-63
2023/01/01 10:51:53;;;;;;;6.13;3.13;;;11.90;99.90;;;;;;5070002;28;20267;-62
2023/01/01 10:54:33;;;;;;;12.23;3.07;;;12.00;99.90;;;;;;5053849;28;20201;-62
2023/01/01 10:57:14;;;;;;;8.33;3.30;;;12.10;99.90;;;;;;5061113;28;20739;-63
2023/01/01 10:59:42;;;;;;;7.20;3.63;;;12.10;99.90;;;;;;5055420;28;20195;-63
2023/01/01 11:02:27;;;;;;;5.30;2.90;;;12.20;99.90;;;;;;5073789;28;20202;-62
2023/01/01 11:05:16;;;;;;;8.70;3.37;;;12.30;99.90;;;;;;5065032;28;20282;-65
2023/01/01 11:07:48;;;;;;;7.70;3.27;;;12.30;99.90;;;;;;5072247;28;20199;-63
2023/01/01 11:10:21;;;;;;;5.17;2.97;;;12.30;99.90;;;;;;5072417;28;20282;-63
2023/01/01 11:12:50;;;;;;;6.13;3.20;;;12.30;99.90;;;;;;5071657;28;20206;-62
2023/01/01 11:15:41;;;;;;;8.03;2.80;;;12.30;99.90;;;;;;5075849;28;20690;-63
2023/01/01 11:18:14;;;;;;;8.20;3.23;;;12.30;99.90;;;;;;5076155;28;20218;-63
2023/01/01 11:20:41;;;;;;;10.83;3.07;;;12.30;99.90;;;;;;5064241;28;20331;-62
2023/01/01 11:23:31;;;;;;;7.70;3.23;;;12.30;99.90;;;;;;5074977;28;20246;-63
2023/01/01 11:26:18;;;;;;;5.80;2.67;;;12.30;99.90;;;;;;5079375;28;20200;-62
2023/01/01 11:29:15;;;;;;;9.80;3.50;;;12.30;99.90;;;;;;5073250;28;20882;-62
2023/01/01 11:31:45;;;;;;;7.33;2.73;;;12.40;99.90;;;;;;5079996;28;20296;-63
2023/01/01 11:34:38;;;;;;;11.67;3.10;;;12.40;97.70;;;;;;5071033;28;20218;-62
2023/01/01 11:37:22;;;;;;;5.60;2.60;;;12.50;1.00;;;;;;5076261;28;20215;-63
2023/01/01 11:39:51;;;;;;;6.50;3.20;;;12.50;1.00;;;;;;5069157;28;20625;-64
2023/01/01 11:42:22;;;;;;;7.67;2.90;;;12.50;35.00;;;;;;5074852;28;20200;-63
2023/01/01 11:45:06;;;;;;;6.03;2.20;;;12.60;1.00;;;;;;5073979;28;20201;-62
2023/01/01 11:47:41;;;;;;;7.17;2.17;;;12.60;99.90;;;;;;5057684;28;20647;-63
2023/01/01 11:50:33;;;;;;;4.73;1.83;;;12.60;76.40;;;;;;5070216;28;20832;-63
2023/01/01 11:53:23;;;;;;;6.33;2.10;;;12.70;18.60;;;;;;5075641;28;20299;-62
2023/01/01 11:56:16;;;;;;;5.87;2.30;;;12.70;1.00;;;;;;5055969;28;20318;-63
2023/01/01 11:58:58;;;;;;;3.73;1.83;;;12.80;1.00;;;;;;5071861;28;20234;-62
2023/01/01 12:01:46;;;;;;;8.17;2.50;;;12.90;1.00;;;;;;5072357;28;20288;-63
2023/01/01 12:04:27;;;;;;;6.33;1.80;;;13.00;1.00;;;;;;5051979;28;20300;-63
2023/01/01 12:07:01;;;;;;;5.90;1.90;;;13.00;99.90;;;;;;5073674;28;20227;-62
2023/01/01 12:10:01;;;;;;;6.17;2.10;;;13.00;1.00;;;;;;5068506;28;20208;-62
2023/01/01 12:12:52;;;;;;;8.90;1.90;;;13.10;99.90;;;;;;5074204;28;20273;-62
2023/01/01 12:15:35;;;;;;;7.57;1.57;;;13.10;1.00;;;;;;5073190;28;20210;-62
2023/01/01 12:18:26;;;;;;;7.40;1.93;;;13.10;99.90;;;;;;5070227;28;20813;-62
2023/01/01 12:21:02;;;;;;;5.53;1.83;;;13.10;99.90;;;;;;5065089;28;20231;-62
2023/01/01 12:23:30;;;;;;;5.60;1.40;;;13.30;1.00;;;;;;5053430;28;20287;-62
2023/01/01 12:26:35;;;;;;;6.03;1.57;;;13.40;1.00;;;;;;5064895;28;20280;-62
2023/01/01 12:29:23;;;;;;;4.57;1.70;;;13.60;99.90;;;;;;5067437;28;20231;-63
2023/01/01 12:32:14;;;;;;;9.03;2.30;;;13.60;99.90;;;;;;5069739;28;20602;-62
2023/01/01 12:35:05;;;;;;;6.70;2.03;;;13.70;99.90;;;;;;5071396;28;20214;-63
2023/01/01 12:37:59;;;;;;;5.57;1.90;;;13.70;99.90;;;;;;5074909;28;20709;-63
2023/01/01 12:41:00;;;;;;;9.53;2.13;;;13.90;99.90;;;;;;5073162;28;20229;-62
2023/01/01 12:43:42;;;;;;;8.37;1.80;;;14.10;1.00;;;;;;5072020;28;21041;-64
2023/01/01 12:46:24;;;;;;;6.13;2.13;;;13.80;1.00;;;;;;5075695;28;20203;-63
2023/01/01 12:49:17;;;;;;;4.43;1.70;;;13.70;1.00;;;;;;5072315;28;20212;-62
2023/01/01 12:51:55;;;;;;;6.57;2.13;;;13.60;1.00;;;;;;5074988;28;20304;-62
2023/01/01 12:54:54;;;;;;;5.50;1.70;;;13.60;16.70;;;;;;5065364;28;20206;-62
2023/01/01 12:57:30;;;;;;;9.20;1.63;;;13.60;1.00;;;;;;5029015;28;20201;-62
2023/01/01 13:00:01;;;;;;;7.70;2.30;;;13.50;1.00;;;;;;5057487;28;20674;-62
2023/01/01 13:02:32;;;;;;;5.17;1.97;;;13.50;59.90;;;;;;5054044;28;20256;-63
2023/01/01 13:05:06;;;;;;;8.00;1.90;;;13.40;1.00;;;;;;5074542;28;20205;-63
2023/01/01 13:07:38;;;;;;;10.07;1.93;;;13.50;99.90;;;;;;5049509;28;20202;-64
2023/01/01 13:10:26;;;;;;;8.30;2.13;;;13.50;99.90;;;;;;5057703;28;20742;-63
2023/01/01 13:12:55;;;;;;;9.50;1.87;;;13.40;92.70;;;;;;5066244;28;20207;-62
2023/01/01 13:15:37;;;;;;;6.83;1.87;;;13.40;99.90;;;;;;5067218;28;20600;-62
2023/01/01 13:18:12;;;;;;;3.27;1.43;;;13.50;99.90;;;;;;5072272;28;20236;-64
2023/01/01 13:20:52;;;;;;;3.67;1.70;;;13.40;39.90;;;;;;5071861;28;20622;-62
2023/01/01 13:23:32;;;;;;;7.57;2.20;;;13.30;99.90;;;;;;5067398;28;20231;-62
2023/01/01 13:26:17;;;;;;;6.00;2.00;;;13.30;53.60;;;;;;5068651;28;20203;-62